sensor_id;sensor_type;location;lat;lon;timestamp;pressure;altitude;pressure_sealevel;temperature;humidity
36092;BME280;22147;52.388;13.390;2023-05-24T00:00:49;101222.00;;;7.97;100.00
36092;BME280;22147;52.388;13.390;2023-05-24T00:03:22;101215.41;;;7.93;100.00
36092;BME280;22147;52.388;13.390;2023-05-24T00:05:52;101221.78;;;7.93;100.00
36092;BME280;22147;52.388;13.390;2023-05-24T00:08:23;101223.47;;;7.89;100.00
36092;BME280;22147;52.388;13.390;2023-05-24T00:10:53;101216.94;;;7.85;100.00
36092;BME280;22147;52.388;13.390;2023-05-24T00:13:24;101223.56;;;7.84;100.00
36092;BME280;22147;52.388;13.390;2023-05-24T00:15:54;101223.56;;;7.84;100.00
36092;BME280;22147;52.388;13.390;2023-05-24T00:18:24;101222.75;;;7.84;100.00
36092;BME280;22147;52.388;13.390;2023-05-24T00:20:55;101226.03;;;7.86;100.00
36092;BME280;22147;52.388;13.390;2023-05-24T00:23:27;101225.06;;;7.95;100.00
36092;BME280;22147;52.388;13.390;2023-05-24T00:25:57;101217.59;;;7.96;100.00
36092;BME280;22147;52.388;13.390;2023-05-24T00:28:28;101223.97;;;7.97;100.00
36092;BME280;22147;52.388;13.390;2023-05-24T00:31:00;101230.59;;;7.95;100.00
36092;BME280;22147;52.388;13.390;2023-05-24T00:33:30;101231.72;;;7.94;100.00
36092;BME280;22147;52.388;13.390;2023-05-24T00:36:01;101227.09;;;7.90;100.00
36092;BME280;22147;52.388;13.390;2023-05-24T00:38:31;101234.34;;;7.86;100.00
36092;BME280;22147;52.388;13.390;2023-05-24T00:41:01;101230.75;;;7.85;100.00
36092;BME280;22147;52.388;13.390;2023-05-24T00:43:32;101232.69;;;7.85;100.00
36092;BME280;22147;52.388;13.390;2023-05-24T00:48:51;101226.94;;;7.81;100.00
36092;BME280;22147;52.388;13.390;2023-05-24T00:51:23;101225.28;;;7.80;100.00
36092;BME280;22147;52.388;13.390;2023-05-24T00:53:56;101218.69;;;7.76;100.00
36092;BME280;22147;52.388;13.390;2023-05-24T00:56:25;101224.00;;;7.72;100.00
36092;BME280;22147;52.388;13.390;2023-05-24T00:58:56;101230.94;;;7.70;100.00
36092;BME280;22147;52.388;13.390;2023-05-24T01:01:26;101223.78;;;7.69;100.00
36092;BME280;22147;52.388;13.390;2023-05-24T01:03:58;101220.41;;;7.72;100.00
36092;BME280;22147;52.388;13.390;2023-05-24T01:06:29;101227.34;;;7.69;100.00
36092;BME280;22147;52.388;13.390;2023-05-24T01:09:28;101231.25;;;7.68;100.00
36092;BME280;22147;52.388;13.390;2023-05-24T01:12:19;101241.47;;;7.68;100.00
36092;BME280;22147;52.388;13.390;2023-05-24T01:18:04;101236.19;;;7.71;100.00
36092;BME280;22147;52.388;13.390;2023-05-24T01:20:42;101227.59;;;7.73;100.00
36092;BME280;22147;52.388;13.390;2023-05-24T01:23:24;101228.66;;;7.77;100.00
36092;BME280;22147;52.388;13.390;2023-05-24T01:26:41;101235.41;;;7.90;100.00
36092;BME280;22147;52.388;13.390;2023-05-24T01:29:25;101235.69;;;7.88;100.00
36092;BME280;22147;52.388;13.390;2023-05-24T01:31:57;101237.03;;;7.91;100.00
36092;BME280;22147;52.388;13.390;2023-05-24T01:34:25;101244.41;;;7.95;100.00
36092;BME280;22147;52.388;13.390;2023-05-24T01:36:54;101244.13;;;7.97;100.00
36092;BME280;22147;52.388;13.390;2023-05-24T01:39:26;101243.47;;;8.05;100.00
36092;BME280;22147;52.388;13.390;2023-05-24T01:45:42;101244.22;;;8.11;100.00
36092;BME280;22147;52.388;13.390;2023-05-24T01:51:43;101244.13;;;8.16;100.00
36092;BME280;22147;52.388;13.390;2023-05-24T01:54:27;101251.63;;;8.15;100.00
36092;BME280;22147;52.388;13.390;2023-05-24T01:57:06;101251.53;;;8.21;100.00
36092;BME280;22147;52.388;13.390;2023-05-24T01:59:41;101246.00;;;8.21;100.00
36092;BME280;22147;52.388;13.390;2023-05-24T02:02:12;101245.41;;;8.24;100.00
36092;BME280;22147;52.388;13.390;2023-05-24T02:04:42;101250.09;;;8.23;100.00
36092;BME280;22147;52.388;13.390;2023-05-24T02:07:12;101248.47;;;8.22;100.00
36092;BME280;22147;52.388;13.390;2023-05-24T02:09:42;101250.63;;;8.25;100.00
36092;BME280;22147;52.388;13.390;2023-05-24T02:12:16;101253.91;;;8.27;100.00
36092;BME280;22147;52.388;13.390;2023-05-24T02:14:46;101249.16;;;8.33;100.00
36092;BME280;22147;52.388;13.390;2023-05-24T02:17:19;101250.28;;;8.32;100.00
36092;BME280;22147;52.388;13.390;2023-05-24T02:19:49;101249.16;;;8.33;100.00
36092;BME280;22147;52.388;13.390;2023-05-24T02:22:19;101244.66;;;8.37;100.00
36092;BME280;22147;52.388;13.390;2023-05-24T02:24:51;101243.03;;;8.36;100.00
36092;BME280;22147;52.388;13.390;2023-05-24T02:27:21;101245.78;;;8.36;100.00
36092;BME280;22147;52.388;13.390;2023-05-24T02:29:51;101243.59;;;8.33;100.00
36092;BME280;22147;52.388;13.390;2023-05-24T02:32:21;101245.28;;;8.34;100.00
36092;BME280;22147;52.388;13.390;2023-05-24T02:34:51;101240.03;;;8.32;100.00
36092;BME280;22147;52.388;13.390;2023-05-24T02:37:21;101241.66;;;8.33;100.00
36092;BME280;22147;52.388;13.390;2023-05-24T02:39:51;101240.56;;;8.34;100.00
36092;BME280;22147;52.388;13.390;2023-05-24T02:42:22;101238.06;;;8.33;100.00
36092;BME280;22147;52.388;13.390;2023-05-24T02:44:52;101241.06;;;8.36;100.00
36092;BME280;22147;52.388;13.390;2023-05-24T02:47:22;101241.06;;;8.36;100.00
36092;BME280;22147;52.388;13.390;2023-05-24T02:49:53;101242.69;;;8.38;100.00
36092;BME280;22147;52.388;13.390;2023-05-24T02:52:24;101242.97;;;8.41;100.00
36092;BME280;22147;52.388;13.390;2023-05-24T02:54:54;101239.72;;;8.34;100.00
36092;BME280;22147;52.388;13.390;2023-05-24T02:57:24;101242.19;;;8.35;100.00
36092;BME280;22147;52.388;13.390;2023-05-24T02:59:54;101244.44;;;8.33;100.00
36092;BME280;22147;52.388;13.390;2023-05-24T03:02:25;101249.44;;;8.31;100.00
36092;BME280;22147;52.388;13.390;2023-05-24T03:04:57;101248.91;;;8.29;100.00
36092;BME280;22147;52.388;13.390;2023-05-24T03:07:26;101252.53;;;8.30;100.00
36092;BME280;22147;52.388;13.390;2023-05-24T03:09:54;101254.91;;;8.36;100.00
36092;BME280;22147;52.388;13.390;2023-05-24T03:12:23;101253.06;;;8.32;100.00
36092;BME280;22147;52.388;13.390;2023-05-24T03:14:51;101250.06;;;8.28;100.00
36092;BME280;22147;52.388;13.390;2023-05-24T03:17:20;101244.00;;;8.26;100.00
36092;BME280;22147;52.388;13.390;2023-05-24T03:19:48;101248.47;;;8.22;100.00
36092;BME280;22147;52.388;13.390;2023-05-24T03:22:18;101248.72;;;8.26;100.00
36092;BME280;22147;52.388;13.390;2023-05-24T03:24:45;101254.44;;;8.29;100.00
36092;BME280;22147;52.388;13.390;2023-05-24T03:27:17;101250.34;;;8.27;100.00
36092;BME280;22147;52.388;13.390;2023-05-24T03:29:45;101252.59;;;8.25;100.00
36092;BME280;22147;52.388;13.390;2023-05-24T03:32:14;101245.41;;;8.24;100.00
36092;BME280;22147;52.388;13.390;2023-05-24T03:34:42;101248.19;;;8.24;100.00
36092;BME280;22147;52.388;13.390;2023-05-24T03:37:12;101248.38;;;8.27;100.00
36092;BME280;22147;52.388;13.390;2023-05-24T03:39:41;101250.97;;;8.24;100.00
36092;BME280;22147;52.388;13.390;2023-05-24T03:42:15;101253.09;;;8.27;100.00
36092;BME280;22147;52.388;13.390;2023-05-24T03:44:42;101255.06;;;8.26;100.00
36092;BME280;22147;52.388;13.390;2023-05-24T03:47:11;101254.78;;;8.28;100.00
36092;BME280;22147;52.388;13.390;2023-05-24T03:49:39;101261.34;;;8.32;100.00
36092;BME280;22147;52.388;13.390;2023-05-24T03:52:08;101265.47;;;8.34;100.00
36092;BME280;22147;52.388;13.390;2023-05-24T03:54:36;101268.50;;;8.33;100.00
36092;BME280;22147;52.388;13.390;2023-05-24T03:57:06;101269.50;;;8.42;100.00
36092;BME280;22147;52.388;13.390;2023-05-24T03:59:33;101266.44;;;8.44;100.00
36092;BME280;22147;52.388;13.390;2023-05-24T04:02:02;101275.56;;;8.44;100.00
36092;BME280;22147;52.388;13.390;2023-05-24T04:04:30;101268.09;;;8.45;100.00
36092;BME280;22147;52.388;13.390;2023-05-24T04:06:59;101273.66;;;8.45;100.00
36092;BME280;22147;52.388;13.390;2023-05-24T04:09:28;101278.28;;;8.49;100.00
36092;BME280;22147;52.388;13.390;2023-05-24T04:11:56;101277.75;;;8.47;100.00
36092;BME280;22147;52.388;13.390;2023-05-24T04:14:24;101278.28;;;8.49;100.00
36092;BME280;22147;52.388;13.390;2023-05-24T04:16:55;101271.81;;;8.54;100.00
36092;BME280;22147;52.388;13.390;2023-05-24T04:19:26;101279.63;;;8.52;100.00
36092;BME280;22147;52.388;13.390;2023-05-24T04:21:56;101277.88;;;8.56;100.00
36092;BME280;22147;52.388;13.390;2023-05-24T04:24:27;101281.28;;;8.53;100.00
36092;BME280;22147;52.388;13.390;2023-05-24T04:26:57;101284.03;;;8.53;100.00
36092;BME280;22147;52.388;13.390;2023-05-24T04:29:27;101275.63;;;8.58;100.00
36092;BME280;22147;52.388;13.390;2023-05-24T04:31:57;101280.88;;;8.60;100.00
36092;BME280;22147;52.388;13.390;2023-05-24T04:34:29;101288.34;;;8.59;100.00
36092;BME280;22147;52.388;13.390;2023-05-24T04:37:02;101278.31;;;8.63;100.00
36092;BME280;22147;52.388;13.390;2023-05-24T04:39:33;101282.75;;;8.64;100.00
36092;BME280;22147;52.388;13.390;2023-05-24T04:42:04;101281.19;;;8.58;100.00
36092;BME280;22147;52.388;13.390;2023-05-24T04:44:41;101283.31;;;8.61;100.00
36092;BME280;22147;52.388;13.390;2023-05-24T04:47:13;101287.00;;;8.56;100.00
36092;BME280;22147;52.388;13.390;2023-05-24T04:49:43;101293.69;;;8.55;100.00
36092;BME280;22147;52.388;13.390;2023-05-24T04:52:12;101288.97;;;8.56;100.00
36092;BME280;22147;52.388;13.390;2023-05-24T04:54:40;101295.31;;;8.56;100.00
36092;BME280;22147;52.388;13.390;2023-05-24T04:57:08;101300.78;;;8.62;100.00
36092;BME280;22147;52.388;13.390;2023-05-24T04:59:37;101307.06;;;8.67;100.00
36092;BME280;22147;52.388;13.390;2023-05-24T05:02:05;101315.34;;;8.67;100.00
36092;BME280;22147;52.388;13.390;2023-05-24T05:04:34;101314.44;;;8.72;100.00
36092;BME280;22147;52.388;13.390;2023-05-24T05:07:02;101307.19;;;8.76;100.00
36092;BME280;22147;52.388;13.390;2023-05-24T05:09:32;101314.38;;;8.77;100.00
36092;BME280;22147;52.388;13.390;2023-05-24T05:11:59;101314.09;;;8.79;100.00
36092;BME280;22147;52.388;13.390;2023-05-24T05:14:31;101323.13;;;8.84;100.00
36092;BME280;22147;52.388;13.390;2023-05-24T05:17:02;101322.00;;;8.85;100.00
36092;BME280;22147;52.388;13.390;2023-05-24T05:19:32;101324.56;;;8.82;100.00
36092;BME280;22147;52.388;13.390;2023-05-24T05:22:02;101329.28;;;8.81;100.00
36092;BME280;22147;52.388;13.390;2023-05-24T05:24:33;101329.44;;;8.71;100.00
36092;BME280;22147;52.388;13.390;2023-05-24T05:27:03;101323.91;;;8.71;100.00
36092;BME280;22147;52.388;13.390;2023-05-24T05:29:35;101338.16;;;8.78;100.00
36092;BME280;22147;52.388;13.390;2023-05-24T05:32:05;101348.38;;;8.83;100.00
36092;BME280;22147;52.388;13.390;2023-05-24T05:34:38;101339.22;;;8.82;100.00
36092;BME280;22147;52.388;13.390;2023-05-24T05:37:09;101347.22;;;8.84;100.00
36092;BME280;22147;52.388;13.390;2023-05-24T05:39:39;101347.75;;;8.86;100.00
36092;BME280;22147;52.388;13.390;2023-05-24T05:42:11;101354.34;;;8.90;100.00
36092;BME280;22147;52.388;13.390;2023-05-24T05:44:43;101346.03;;;8.90;100.00
36092;BME280;22147;52.388;13.390;2023-05-24T05:47:13;101357.84;;;8.95;100.00
36092;BME280;22147;52.388;13.390;2023-05-24T05:49:43;101359.78;;;8.95;100.00
36092;BME280;22147;52.388;13.390;2023-05-24T05:52:14;101368.09;;;8.95;100.00
36092;BME280;22147;52.388;13.390;2023-05-24T05:54:44;101367.06;;;8.91;100.00
36092;BME280;22147;52.388;13.390;2023-05-24T05:57:14;101367.28;;;8.94;100.00
36092;BME280;22147;52.388;13.390;2023-05-24T05:59:45;101374.47;;;8.95;100.00
36092;BME280;22147;52.388;13.390;2023-05-24T06:02:15;101370.06;;;8.94;100.00
36092;BME280;22147;52.388;13.390;2023-05-24T06:04:49;101368.56;;;9.02;100.00
36092;BME280;22147;52.388;13.390;2023-05-24T06:07:19;101370.13;;;9.08;100.00
36092;BME280;22147;52.388;13.390;2023-05-24T06:09:50;101363.97;;;9.11;100.00
36092;BME280;22147;52.388;13.390;2023-05-24T06:12:21;101371.59;;;9.20;100.00
36092;BME280;22147;52.388;13.390;2023-05-24T06:14:51;101376.13;;;9.29;100.00
36092;BME280;22147;52.388;13.390;2023-05-24T06:17:22;101374.59;;;9.37;100.00
36092;BME280;22147;52.388;13.390;2023-05-24T06:19:53;101374.94;;;9.49;100.00
36092;BME280;22147;52.388;13.390;2023-05-24T06:22:25;101369.63;;;9.67;100.00
36092;BME280;22147;52.388;13.390;2023-05-24T06:24:58;101381.34;;;9.77;100.00
36092;BME280;22147;52.388;13.390;2023-05-24T06:27:28;101382.91;;;9.84;100.00
36092;BME280;22147;52.388;13.390;2023-05-24T06:29:59;101379.72;;;9.76;100.00
36092;BME280;22147;52.388;13.390;2023-05-24T06:32:29;101383.53;;;9.81;100.00
36092;BME280;22147;52.388;13.390;2023-05-24T06:35:00;101384.22;;;9.86;100.00
36092;BME280;22147;52.388;13.390;2023-05-24T06:37:30;101387.66;;;9.97;100.00
36092;BME280;22147;52.388;13.390;2023-05-24T06:40:00;101393.47;;;10.09;100.00
36092;BME280;22147;52.388;13.390;2023-05-24T06:42:31;101398.00;;;10.05;100.00
36092;BME280;22147;52.388;13.390;2023-05-24T06:45:01;101398.22;;;9.95;100.00
36092;BME280;22147;52.388;13.390;2023-05-24T06:47:32;101402.31;;;9.84;100.00
36092;BME280;22147;52.388;13.390;2023-05-24T06:50:03;101405.28;;;9.73;100.00
36092;BME280;22147;52.388;13.390;2023-05-24T06:52:34;101414.56;;;9.83;100.00
36092;BME280;22147;52.388;13.390;2023-05-24T06:55:05;101405.81;;;9.89;100.00
36092;BME280;22147;52.388;13.390;2023-05-24T06:57:35;101412.69;;;9.92;100.00
36092;BME280;22147;52.388;13.390;2023-05-24T07:00:07;101419.06;;;9.92;100.00
36092;BME280;22147;52.388;13.390;2023-05-24T07:02:41;101416.69;;;9.86;100.00
36092;BME280;22147;52.388;13.390;2023-05-24T07:05:11;101412.91;;;9.82;100.00
36092;BME280;22147;52.388;13.390;2023-05-24T07:07:42;101419.81;;;9.84;100.00
36092;BME280;22147;52.388;13.390;2023-05-24T07:10:13;101418.16;;;9.83;100.00
36092;BME280;22147;52.388;13.390;2023-05-24T07:12:41;101417.84;;;9.85;100.00
36092;BME280;22147;52.388;13.390;2023-05-24T07:15:10;101419.59;;;9.94;100.00
36092;BME280;22147;52.388;13.390;2023-05-24T07:17:40;101425.38;;;10.12;100.00
36092;BME280;22147;52.388;13.390;2023-05-24T07:20:10;101434.41;;;10.17;100.00
36092;BME280;22147;52.388;13.390;2023-05-24T07:22:40;101433.25;;;10.05;100.00
36092;BME280;22147;52.388;13.390;2023-05-24T07:25:09;101439.03;;;10.08;100.00
36092;BME280;22147;52.388;13.390;2023-05-24T07:27:37;101435.63;;;9.97;100.00
36092;BME280;22147;52.388;13.390;2023-05-24T07:30:06;101439.44;;;10.02;100.00
36092;BME280;22147;52.388;13.390;2023-05-24T07:32:57;101436.16;;;9.99;100.00
36092;BME280;22147;52.388;13.390;2023-05-24T07:35:25;101438.81;;;10.05;100.00
36092;BME280;22147;52.388;13.390;2023-05-24T07:37:57;101449.22;;;10.13;100.00
36092;BME280;22147;52.388;13.390;2023-05-24T07:40:25;101445.72;;;10.21;100.00
36092;BME280;22147;52.388;13.390;2023-05-24T07:42:54;101453.41;;;10.24;100.00
36092;BME280;22147;52.388;13.390;2023-05-24T07:45:22;101450.59;;;10.29;100.00
36092;BME280;22147;52.388;13.390;2023-05-24T07:47:50;101449.53;;;10.39;100.00
36092;BME280;22147;52.388;13.390;2023-05-24T07:50:25;101450.69;;;10.38;100.00
36092;BME280;22147;52.388;13.390;2023-05-24T07:52:56;101456.25;;;10.38;100.00
36092;BME280;22147;52.388;13.390;2023-05-24T07:55:26;101449.75;;;10.43;100.00
36092;BME280;22147;52.388;13.390;2023-05-24T07:57:55;101467.75;;;10.45;100.00
36092;BME280;22147;52.388;13.390;2023-05-24T08:00:28;101466.72;;;10.55;100.00
36092;BME280;22147;52.388;13.390;2023-05-24T08:02:59;101473.00;;;10.61;100.00
36092;BME280;22147;52.388;13.390;2023-05-24T08:05:30;101468.03;;;10.71;100.00
36092;BME280;22147;52.388;13.390;2023-05-24T08:08:00;101473.88;;;10.84;100.00
36092;BME280;22147;52.388;13.390;2023-05-24T08:10:29;101467.41;;;10.74;100.00
36092;BME280;22147;52.388;13.390;2023-05-24T08:12:59;101469.59;;;10.77;100.00
36092;BME280;22147;52.388;13.390;2023-05-24T08:15:28;101473.91;;;10.70;100.00
36092;BME280;22147;52.388;13.390;2023-05-24T08:17:58;101469.78;;;10.67;100.00
36092;BME280;22147;52.388;13.390;2023-05-24T08:20:29;101471.03;;;10.61;100.00
36092;BME280;22147;52.388;13.390;2023-05-24T08:22:59;101475.25;;;10.58;100.00
36092;BME280;22147;52.388;13.390;2023-05-24T08:25:30;101474.41;;;10.58;100.00
36092;BME280;22147;52.388;13.390;2023-05-24T08:28:00;101474.84;;;10.51;100.00
36092;BME280;22147;52.388;13.390;2023-05-24T08:30:31;101475.97;;;10.64;100.00
36092;BME280;22147;52.388;13.390;2023-05-24T08:33:02;101483.78;;;10.62;100.00
36092;BME280;22147;52.388;13.390;2023-05-24T08:35:32;101485.84;;;10.70;100.00
36092;BME280;22147;52.388;13.390;2023-05-24T08:38:05;101482.84;;;10.67;100.00
36092;BME280;22147;52.388;13.390;2023-05-24T08:40:36;101488.91;;;10.69;100.00
36092;BME280;22147;52.388;13.390;2023-05-24T08:43:06;101493.56;;;10.73;100.00
36092;BME280;22147;52.388;13.390;2023-05-24T08:45:42;101488.50;;;10.75;100.00
36092;BME280;22147;52.388;13.390;2023-05-24T08:48:15;101494.59;;;10.64;100.00
36092;BME280;22147;52.388;13.390;2023-05-24T08:50:48;101491.69;;;10.69;100.00
36092;BME280;22147;52.388;13.390;2023-05-24T08:53:20;101494.69;;;10.72;100.00
36092;BME280;22147;52.388;13.390;2023-05-24T08:55:54;101497.75;;;10.85;100.00
36092;BME280;22147;52.388;13.390;2023-05-24T08:58:25;101498.34;;;10.95;100.00
36092;BME280;22147;52.388;13.390;2023-05-24T09:00:57;101502.16;;;10.99;100.00
36092;BME280;22147;52.388;13.390;2023-05-24T09:03:32;101503.78;;;11.00;100.00
36092;BME280;22147;52.388;13.390;2023-05-24T09:06:08;101509.69;;;10.99;100.00
36092;BME280;22147;52.388;13.390;2023-05-24T09:08:41;101505.22;;;10.98;100.00
36092;BME280;22147;52.388;13.390;2023-05-24T09:11:15;101508.72;;;11.04;100.00
36092;BME280;22147;52.388;13.390;2023-05-24T09:13:48;101507.63;;;11.27;100.00
36092;BME280;22147;52.388;13.390;2023-05-24T09:16:18;101511.31;;;11.36;100.00
36092;BME280;22147;52.388;13.390;2023-05-24T09:18:49;101513.75;;;11.52;98.57
36092;BME280;22147;52.388;13.390;2023-05-24T09:21:19;101507.28;;;11.65;100.00
36092;BME280;22147;52.388;13.390;2023-05-24T09:23:52;101512.28;;;11.77;98.09
36092;BME280;22147;52.388;13.390;2023-05-24T09:26:22;101507.91;;;11.85;97.51
36092;BME280;22147;52.388;13.390;2023-05-24T09:28:54;101514.19;;;11.90;95.81
36092;BME280;22147;52.388;13.390;2023-05-24T09:31:33;101504.69;;;11.91;97.13
36092;BME280;22147;52.388;13.390;2023-05-24T09:34:14;101507.59;;;12.09;96.77
36092;BME280;22147;52.388;13.390;2023-05-24T09:36:45;101502.66;;;12.06;96.93
36092;BME280;22147;52.388;13.390;2023-05-24T09:39:18;101503.50;;;12.15;95.86
36092;BME280;22147;52.388;13.390;2023-05-24T09:41:52;101503.03;;;12.13;93.95
36092;BME280;22147;52.388;13.390;2023-05-24T09:44:26;101503.88;;;12.22;93.45
36092;BME280;22147;52.388;13.390;2023-05-24T09:47:03;101510.78;;;12.25;94.16
36092;BME280;22147;52.388;13.390;2023-05-24T09:49:38;101516.63;;;12.14;93.31
36092;BME280;22147;52.388;13.390;2023-05-24T09:52:13;101518.78;;;12.17;94.18
36092;BME280;22147;52.388;13.390;2023-05-24T09:54:44;101519.63;;;11.95;93.67
36092;BME280;22147;52.388;13.390;2023-05-24T09:57:17;101524.19;;;11.69;94.25
36092;BME280;22147;52.388;13.390;2023-05-24T09:59:50;101523.06;;;11.78;97.05
36092;BME280;22147;52.388;13.390;2023-05-24T10:02:22;101518.47;;;11.74;95.35
36092;BME280;22147;52.388;13.390;2023-05-24T10:05:02;101518.97;;;11.76;94.45
36092;BME280;22147;52.388;13.390;2023-05-24T10:07:34;101524.78;;;11.66;94.44
36092;BME280;22147;52.388;13.390;2023-05-24T10:10:05;101532.38;;;11.74;94.07
36092;BME280;22147;52.388;13.390;2023-05-24T10:12:36;101531.31;;;11.84;93.97
36092;BME280;22147;52.388;13.390;2023-05-24T10:15:11;101528.00;;;12.04;92.11
36092;BME280;22147;52.388;13.390;2023-05-24T10:17:42;101527.72;;;12.06;91.78
36092;BME280;22147;52.388;13.390;2023-05-24T10:20:12;101530.19;;;12.07;90.05
36092;BME280;22147;52.388;13.390;2023-05-24T10:22:46;101538.72;;;12.11;92.33
36092;BME280;22147;52.388;13.390;2023-05-24T10:25:23;101537.06;;;12.10;90.62
36092;BME280;22147;52.388;13.390;2023-05-24T10:28:00;101531.97;;;12.03;91.10
36092;BME280;22147;52.388;13.390;2023-05-24T10:33:36;101527.50;;;12.33;92.38
36092;BME280;22147;52.388;13.390;2023-05-24T10:36:12;101529.06;;;12.48;94.13
36092;BME280;22147;52.388;13.390;2023-05-24T10:38:49;101531.59;;;12.67;94.70
36092;BME280;22147;52.388;13.390;2023-05-24T10:41:19;101540.66;;;12.90;88.21
36092;BME280;22147;52.388;13.390;2023-05-24T10:43:52;101537.25;;;12.93;87.71
36092;BME280;22147;52.388;13.390;2023-05-24T10:49:51;101542.63;;;12.81;83.75
36092;BME280;22147;52.388;13.390;2023-05-24T10:52:34;101547.06;;;12.91;81.74
36092;BME280;22147;52.388;13.390;2023-05-24T10:55:08;101535.44;;;12.97;81.27
36092;BME280;22147;52.388;13.390;2023-05-24T10:57:40;101538.25;;;13.06;82.65
36092;BME280;22147;52.388;13.390;2023-05-24T11:03:09;101540.19;;;12.97;81.16
36092;BME280;22147;52.388;13.390;2023-05-24T11:05:53;101540.25;;;12.66;84.87
36092;BME280;22147;52.388;13.390;2023-05-24T11:08:33;101538.31;;;12.66;86.25
36092;BME280;22147;52.388;13.390;2023-05-24T11:11:10;101547.81;;;12.65;86.83
36092;BME280;22147;52.388;13.390;2023-05-24T11:13:56;101553.59;;;12.37;85.60
36092;BME280;22147;52.388;13.390;2023-05-24T11:16:38;101546.63;;;12.17;88.27
36092;BME280;22147;52.388;13.390;2023-05-24T11:19:22;101542.25;;;12.34;88.70
36092;BME280;22147;52.388;13.390;2023-05-24T11:21:52;101547.75;;;12.48;88.24
36092;BME280;22147;52.388;13.390;2023-05-24T11:24:27;101544.47;;;12.46;86.84
36092;BME280;22147;52.388;13.390;2023-05-24T11:26:59;101545.69;;;12.62;87.05
36092;BME280;22147;52.388;13.390;2023-05-24T11:29:29;101540.63;;;12.73;87.11
36092;BME280;22147;52.388;13.390;2023-05-24T11:31:59;101539.38;;;12.88;83.34
36092;BME280;22147;52.388;13.390;2023-05-24T11:34:36;101529.16;;;12.74;86.61
36092;BME280;22147;52.388;13.390;2023-05-24T11:37:09;101533.63;;;12.93;87.05
36092;BME280;22147;52.388;13.390;2023-05-24T11:39:43;101540.06;;;13.02;83.73
36092;BME280;22147;52.388;13.390;2023-05-24T11:42:19;101537.44;;;13.14;81.97
36092;BME280;22147;52.388;13.390;2023-05-24T11:44:52;101541.28;;;13.44;83.89
36092;BME280;22147;52.388;13.390;2023-05-24T11:47:23;101542.06;;;13.80;82.46
36092;BME280;22147;52.388;13.390;2023-05-24T11:49:51;101535.13;;;14.12;79.14
36092;BME280;22147;52.388;13.390;2023-05-24T11:52:19;101534.59;;;14.19;76.27
36092;BME280;22147;52.388;13.390;2023-05-24T11:54:48;101540.72;;;14.12;78.33
36092;BME280;22147;52.388;13.390;2023-05-24T11:57:37;101540.50;;;14.26;79.87
36092;BME280;22147;52.388;13.390;2023-05-24T12:00:26;101547.81;;;13.92;76.79
36092;BME280;22147;52.388;13.390;2023-05-24T12:02:57;101552.03;;;14.07;77.18
36092;BME280;22147;52.388;13.390;2023-05-24T12:05:36;101551.19;;;14.15;76.00
36092;BME280;22147;52.388;13.390;2023-05-24T12:08:07;101558.34;;;13.60;74.74
36092;BME280;22147;52.388;13.390;2023-05-24T12:10:42;101555.06;;;13.58;78.13
36092;BME280;22147;52.388;13.390;2023-05-24T12:13:24;101551.78;;;13.48;76.62
36092;BME280;22147;52.388;13.390;2023-05-24T12:15:55;101549.47;;;13.41;77.03
36092;BME280;22147;52.388;13.390;2023-05-24T12:18:27;101549.66;;;13.44;77.21
36092;BME280;22147;52.388;13.390;2023-05-24T12:20:58;101549.78;;;13.48;76.22
36092;BME280;22147;52.388;13.390;2023-05-24T12:23:29;101554.41;;;13.53;78.00
36092;BME280;22147;52.388;13.390;2023-05-24T12:26:02;101551.94;;;13.69;74.66
36092;BME280;22147;52.388;13.390;2023-05-24T12:28:35;101558.97;;;13.83;74.96
36092;BME280;22147;52.388;13.390;2023-05-24T12:31:08;101560.91;;;14.09;75.24
36092;BME280;22147;52.388;13.390;2023-05-24T12:33:38;101557.63;;;14.07;71.33
36092;BME280;22147;52.388;13.390;2023-05-24T12:36:09;101561.25;;;14.08;73.81
36092;BME280;22147;52.388;13.390;2023-05-24T12:38:38;101548.50;;;14.36;75.90
36092;BME280;22147;52.388;13.390;2023-05-24T12:41:10;101547.25;;;14.72;73.17
36092;BME280;22147;52.388;13.390;2023-05-24T12:43:42;101555.25;;;14.82;69.34
36092;BME280;22147;52.388;13.390;2023-05-24T12:46:13;101546.16;;;15.15;73.42
36092;BME280;22147;52.388;13.390;2023-05-24T12:48:43;101551.97;;;15.10;70.63
36092;BME280;22147;52.388;13.390;2023-05-24T12:51:14;101554.28;;;15.08;68.63
36092;BME280;22147;52.388;13.390;2023-05-24T12:53:44;101552.25;;;14.88;70.27
36092;BME280;22147;52.388;13.390;2023-05-24T12:56:15;101548.84;;;14.82;73.62
36092;BME280;22147;52.388;13.390;2023-05-24T12:58:45;101555.44;;;14.77;71.51
36092;BME280;22147;52.388;13.390;2023-05-24T13:01:16;101551.69;;;14.73;72.86
36092;BME280;22147;52.388;13.390;2023-05-24T13:03:47;101552.72;;;14.51;72.17
36092;BME280;22147;52.388;13.390;2023-05-24T13:06:17;101553.53;;;14.52;72.65
36092;BME280;22147;52.388;13.390;2023-05-24T13:08:48;101559.97;;;14.61;70.90
36092;BME280;22147;52.388;13.390;2023-05-24T13:11:18;101557.31;;;14.64;70.04
36092;BME280;22147;52.388;13.390;2023-05-24T13:13:48;101557.63;;;14.72;71.25
36092;BME280;22147;52.388;13.390;2023-05-24T13:16:19;101560.25;;;14.98;70.94
36092;BME280;22147;52.388;13.390;2023-05-24T13:18:49;101555.03;;;15.17;71.14
36092;BME280;22147;52.388;13.390;2023-05-24T13:21:20;101556.53;;;15.15;70.46
36092;BME280;22147;52.388;13.390;2023-05-24T13:23:51;101556.81;;;15.01;70.10